Date,TemperatureHighF,TemperatureAvgF,TemperatureLowF,DewpointHighF,DewpointAvgF,DewpointLowF,HumidityHigh,HumidityAvg,HumidityLow,PressureMaxIn,PressureMinIn,WindSpeedMaxMPH,WindSpeedAvgMPH,GustSpeedMaxMPH,PrecipitationSumIn
2013-1-1,41,36,27,36,31,20,93,82,69,29.71,29.55,9,2,0,0.08
2013-1-2,34,27,21,23,19,15,88,73,61,29.87,29.69,5,1,0,0.00
2013-1-3,34,27,22,24,21,19,92,78,64,29.90,29.76,5,1,0,0.00
2013-1-4,40,32,24,31,26,22,96,82,67,29.79,29.66,7,2,0,0.00
2013-1-5,44,33,26,32,27,23,98,78,59,30.00,29.72,6,1,0,0.00
2013-1-6,47,38,30,39,33,28,98,85,64,29.92,29.67,5,1,0,0.00
2013-1-7,47,35,24,37,30,23,98,84,56,30.12,29.75,6,1,0,0.00
2013-1-8,49,32,20,40,30,20,98,91,69,30.13,30.04,6,1,0,0.00
2013-1-9,48,37,26,45,36,25,98,95,85,30.09,29.84,5,1,0,0.00
2013-1-10,49,40,32,38,33,30,98,78,54,30.26,29.95,6,1,0,0.00
2013-1-11,46,40,32,45,39,29,98,93,83,30.24,29.79,4,1,0,0.68
2013-1-12,50,46,42,49,45,42,98,98,98,29.88,29.77,3,0,0,0.00
2013-1-13,50,47,44,49,46,44,98,98,98,29.87,29.72,2,0,0,0.02
2013-1-14,58,50,40,58,47,37,98,91,67,30.01,29.60,7,1,0,0.12
2013-1-15,40,38,35,39,35,32,98,89,78,30.06,29.91,5,1,0,0.16
2013-1-16,36,34,32,35,34,32,98,98,98,29.92,29.53,5,1,0,0.97
2013-1-17,46,39,36,39,35,31,98,87,72,29.81,29.62,8,1,0,0.01
2013-1-18,35,28,22,31,19,12,85,67,48,30.21,29.71,7,2,0,0.00
2013-1-19,52,37,22,37,30,17,95,75,56,30.11,29.64,7,2,0,0.00
2013-1-20,56,40,26,41,29,18,98,68,35,29.76,29.41,10,2,0,0.00
2013-1-21,33,27,18,22,18,14,92,68,56,29.81,29.56,6,1,0,0.00
2013-1-22,26,19,12,15,6,-1,68,57,43,29.94,29.55,7,3,0,0.00
2013-1-23,21,13,7,6,2,-2,89,62,49,29.97,29.88,6,2,0,0.00
2013-1-24,25,16,5,9,5,2,93,65,41,30.14,29.83,9,2,0,0.00
2013-1-25,25,16,8,18,9,1,98,73,53,30.15,29.78,7,1,0,0.00
2013-1-26,28,18,6,19,12,5,98,78,56,30.11,29.76,6,2,0,0.02
2013-1-27,37,22,11,20,15,9,96,76,51,30.24,30.11,6,1,0,0.01
2013-1-28,34,29,18,34,28,17,98,95,83,30.21,29.71,3,1,0,0.19
2013-1-29,54,42,33,50,41,33,98,97,81,29.84,29.71,7,1,0,0.01
2013-1-30,67,52,41,67,52,40,98,98,98,29.78,29.05,8,1,0,0.04
2013-1-31,62,44,28,62,37,17,98,76,52,29.51,28.74,14,5,0,1.40
2013-2-1,34,27,22,24,18,13,98,70,44,29.96,29.50,9,3,0,0.00
2013-2-2,31,24,16,24,15,10,98,71,50,30.02,29.76,7,2,0,0.00
2013-2-3,32,25,19,27,23,18,98,92,75,29.76,29.50,5,1,0,0.03
2013-2-4,31,25,20,24,17,14,98,73,55,29.70,29.52,9,2,0,0.00
2013-2-5,32,29,26,31,29,24,98,98,89,29.68,29.59,3,1,0,0.00
2013-2-6,40,32,24,34,26,15,98,81,60,30.07,29.63,7,1,0,0.03
2013-2-7,34,28,18,28,19,13,90,69,56,30.21,30.02,5,1,0,0.00
2013-2-8,35,33,28,34,32,28,98,96,85,30.02,29.36,9,3,0,0.27
2013-2-9,34,28,17,30,22,12,98,81,59,30.07,29.46,0,0,0,0.00
2013-2-10,41,24,7,26,18,6,98,78,43,30.20,30.04,0,0,0,0.33
2013-2-11,43,36,27,43,35,26,98,98,98,30.03,29.37,0,0,0,1.01
2013-2-12,47,39,28,36,33,27,98,81,63,29.69,29.43,7,2,0,0.06
2013-2-13,44,33,20,36,30,20,98,88,66,29.68,29.39,4,0,0,0.05
2013-2-14,48,36,27,39,32,26,98,87,57,29.72,29.43,4,1,0,0.02
2013-2-15,56,40,25,43,35,24,98,85,58,29.73,29.62,4,1,0,0.00
2013-2-16,41,36,30,39,31,20,98,85,66,29.69,29.45,5,2,0,0.06
2013-2-17,33,27,17,20,13,6,68,56,45,29.74,29.39,9,4,0,0.00
2013-2-18,36,25,15,20,13,6,77,62,45,29.97,29.75,9,2,0,0.00
2013-2-19,49,36,20,44,33,18,98,90,65,29.91,29.39,8,2,0,0.38
2013-2-20,36,30,24,31,21,15,83,68,57,29.72,29.45,9,4,0,0.00
2013-2-21,36,28,22,23,19,15,79,69,57,30.00,29.70,9,3,0,0.00
2013-2-22,38,30,22,36,26,18,98,84,71,30.11,29.99,5,1,0,0.00
2013-2-23,43,40,36,43,39,36,98,98,98,29.99,29.52,7,2,0,0.63
2013-2-24,50,40,32,48,37,28,98,90,74,29.69,29.46,7,2,0,0.02
2013-2-25,46,38,25,37,34,24,98,85,70,29.95,29.71,5,2,0,0.00
2013-2-26,45,40,27,43,38,26,98,92,83,30.00,29.58,11,4,0,0.18
2013-2-27,49,42,37,49,42,37,98,98,98,29.58,29.20,11,3,0,1.37
2013-2-28,52,42,33,47,40,33,98,91,71,29.34,29.26,6,1,0,0.00
2013-3-1,49,38,29,41,35,28,98,88,69,29.51,29.32,9,2,0,0.00
2013-3-2,42,35,30,35,32,29,98,87,72,29.51,29.42,5,2,0,0.00
2013-3-3,40,32,28,30,26,22,97,79,66,29.50,29.38,7,2,0,0.00
2013-3-4,44,34,26,31,26,21,93,74,59,29.64,29.48,7,3,0,0.00
2013-3-5,51,38,28,37,32,26,98,80,57,29.74,29.64,6,2,0,0.00
2013-3-6,42,40,36,41,38,35,98,95,84,29.69,29.55,16,6,0,0.00
2013-3-7,40,37,33,40,36,33,98,94,84,29.81,29.63,11,3,0,0.12
2013-3-8,40,35,31,39,35,31,98,98,98,29.91,29.73,6,1,0,0.62
2013-3-9,57,41,29,37,31,24,98,73,28,30.04,29.89,8,2,0,0.10
2013-3-10,50,37,26,44,35,25,98,95,76,30.11,30.02,6,1,0,0.00
2013-3-11,56,45,32,54,45,32,98,97,84,30.04,29.80,4,1,0,0.00
2013-3-12,59,52,43,59,52,42,98,98,98,29.79,29.37,7,2,0,1.09
2013-3-13,54,42,34,42,36,32,98,83,51,29.60,29.50,8,2,0,0.00
2013-3-14,43,35,29,31,22,16,82,59,40,29.69,29.56,8,3,0,0.00
2013-3-15,47,38,25,38,28,17,82,66,54,29.70,29.42,7,2,0,0.00
2013-3-16,42,36,31,37,32,28,98,88,65,29.63,29.49,4,1,0,0.06
2013-3-17,39,33,27,33,26,21,98,77,56,30.01,29.62,8,2,0,0.00
2013-3-18,38,31,26,34,25,15,98,80,60,30.11,29.73,7,3,0,0.16
2013-3-19,50,39,34,47,37,26,98,94,63,29.71,29.40,8,2,0,1.12
2013-3-20,48,38,28,33,27,25,93,67,46,29.61,29.49,9,2,0,0.00
2013-3-21,40,34,31,33,27,20,98,76,51,29.55,29.34,5,2,0,0.00
2013-3-22,43,34,22,31,27,21,98,77,58,29.60,29.47,7,2,0,0.00
2013-3-23,49,39,28,34,29,25,96,70,49,29.64,29.54,7,3,0,0.00
2013-3-24,48,44,32,34,31,26,80,62,53,29.67,29.41,10,3,0,0.00
2013-3-25,39,37,34,38,36,33,98,96,78,29.35,29.18,16,3,0,0.22
2013-3-26,54,42,30,42,35,29,98,80,54,29.58,29.31,6,1,0,0.00
2013-3-27,55,42,26,41,35,26,98,78,46,29.70,29.58,9,2,0,0.00
2013-3-28,53,43,31,43,37,30,98,80,60,29.83,29.68,9,2,0,0.00
2013-3-29,58,43,29,41,36,28,98,78,51,29.87,29.77,7,1,0,0.00
2013-3-30,62,44,28,41,32,27,98,68,33,29.89,29.77,4,1,0,0.00
2013-3-31,58,43,28,48,39,28,98,87,56,29.84,29.39,8,2,0,0.20
2013-4-1,67,49,36,58,43,21,98,82,51,29.63,29.33,9,2,0,0.02
2013-4-2,46,36,24,30,22,20,86,59,39,29.80,29.64,8,2,0,0.00
2013-4-3,50,37,23,31,22,18,87,56,39,30.02,29.81,8,2,0,0.00
2013-4-4,56,42,25,38,29,20,86,61,43,30.11,29.79,5,2,0,0.00
2013-4-5,66,49,40,43,35,27,92,60,33,29.79,29.42,8,2,0,0.00
2013-4-6,56,44,33,35,26,21,86,53,27,30.03,29.73,7,2,0,0.00
2013-4-7,66,51,33,52,43,32,98,77,45,30.02,29.69,7,2,0,0.00
2013-4-8,78,60,42,57,52,41,98,79,42,29.78,29.69,8,1,0,0.00
2013-4-9,85,66,48,65,53,46,98,69,27,29.69,29.59,8,1,0,0.00
2013-4-10,79,62,54,65,58,53,98,88,62,29.66,29.51,8,1,0,0.45
2013-4-11,61,56,48,61,55,47,98,98,98,29.74,29.47,8,2,0,0.02
2013-4-12,49,44,42,48,44,42,98,98,98,29.72,29.42,10,4,0,0.87
2013-4-13,62,49,37,56,46,36,98,90,66,29.69,29.46,6,1,0,0.04
2013-4-14,61,51,40,51,44,39,98,77,52,29.93,29.68,11,2,0,0.00
2013-4-15,56,49,41,50,43,37,98,81,65,30.10,29.93,7,2,0,0.00
2013-4-16,72,58,45,72,58,45,98,98,98,30.09,29.81,8,2,0,0.00
2013-4-17,75,62,47,60,52,39,98,77,28,30.02,29.81,6,1,0,0.01
2013-4-18,56,51,43,55,50,43,98,98,98,30.05,29.83,8,2,0,0.01
2013-4-19,80,73,63,80,72,62,98,98,98,29.65,29.32,8,4,0,0.23
2013-4-20,60,53,46,60,46,35,98,79,53,30.02,29.40,8,2,0,0.18
2013-4-21,55,41,33,40,35,29,98,80,58,30.34,30.02,7,2,0,0.00
2013-4-22,55,45,31,52,42,31,98,92,68,30.37,30.20,8,3,0,0.00
2013-4-23,52,46,40,52,45,40,98,98,98,30.19,29.83,7,2,0,0.00
2013-4-24,75,51,34,68,50,34,98,97,76,29.83,29.50,6,2,0,0.00
2013-4-25,68,55,42,60,45,36,98,71,33,29.99,29.56,7,2,0,0.00
2013-4-26,68,52,36,52,41,35,98,71,32,30.12,29.98,6,1,0,0.00
2013-4-27,72,55,36,48,43,36,98,67,37,30.15,29.99,5,1,0,0.01
2013-4-28,71,52,37,57,44,36,98,79,45,30.03,29.90,4,1,0,0.01
2013-4-29,55,53,52,54,53,52,98,98,95,29.95,29.89,5,1,0,0.24
2013-4-30,67,55,41,61,52,40,98,91,42,30.06,29.92,7,1,0,0.00
2013-5-1,68,52,36,59,46,35,98,85,42,30.20,30.05,9,2,0,0.00
2013-5-2,73,56,38,66,51,37,98,88,55,30.20,30.03,6,1,0,0.00
2013-5-3,65,55,43,62,52,43,98,91,71,30.17,30.08,8,2,0,0.00
2013-5-4,68,52,40,64,50,39,98,92,69,30.10,29.96,7,2,0,0.01
2013-5-5,61,50,40,60,49,39,98,98,88,30.01,29.94,5,2,0,0.00
2013-5-6,66,49,40,65,48,39,98,98,98,29.99,29.87,4,0,0,0.00
2013-5-7,74,58,44,73,58,43,98,98,98,29.89,29.78,8,1,0,0.00
2013-5-8,67,61,51,67,60,51,98,98,98,29.80,29.66,6,1,0,2.06
2013-5-9,69,56,50,68,55,49,98,98,98,29.72,29.60,2,0,0,0.64
2013-5-10,82,60,50,79,60,50,98,97,75,29.71,29.58,5,0,0,0.00
2013-5-11,74,65,62,73,64,61,98,98,98,29.60,29.38,5,1,0,0.73
2013-5-12,69,60,49,68,54,40,98,82,48,29.66,29.37,8,2,0,0.02
2013-5-13,59,49,38,52,44,37,98,84,57,29.83,29.66,7,2,0,0.00
2013-5-14,64,50,35,52,41,31,98,77,34,29.86,29.74,7,1,0,0.01
2013-5-15,76,58,40,76,58,39,98,98,98,29.79,29.38,4,1,0,0.00
2013-5-16,83,68,55,82,66,54,98,96,69,29.53,29.40,6,1,0,0.00
2013-5-17,75,64,54,67,58,52,98,84,49,29.91,29.53,6,2,0,0.00
2013-5-18,64,58,50,63,57,49,98,98,98,30.03,29.91,4,0,0,0.00
2013-5-19,59,58,56,58,57,55,98,98,98,30.03,29.89,5,1,0,0.81
2013-5-20,81,68,58,81,68,58,98,98,98,29.90,29.66,5,1,0,0.00
2013-5-21,89,74,61,89,74,60,98,98,98,29.68,29.54,4,1,0,0.00
2013-5-22,83,71,63,83,70,62,98,98,98,29.63,29.53,5,1,0,0.00
2013-5-23,83,73,69,82,73,68,98,98,98,29.59,29.45,6,1,0,0.50
2013-5-24,69,56,46,68,56,45,98,98,98,29.68,29.39,6,2,0,0.65
2013-5-25,59,51,45,58,50,44,98,98,98,29.74,29.63,10,3,0,0.09
2013-5-26,70,57,46,61,51,45,98,81,49,29.92,29.69,9,2,0,0.00
2013-5-27,77,59,40,62,52,40,98,79,47,29.97,29.82,7,1,0,0.00
2013-5-28,66,58,48,66,57,47,98,98,98,29.94,29.83,2,0,0,0.60
2013-5-29,88,71,60,88,70,59,98,98,98,29.84,29.69,4,1,0,0.01
2013-5-30,93,80,67,92,79,66,98,96,77,29.84,29.76,4,1,0,0.00
2013-5-31,96,80,66,93,77,66,98,91,58,29.83,29.69,4,1,0,0.00
2013-6-1,93,80,65,92,79,64,98,97,75,29.72,29.60,6,1,0,0.00
2013-6-2,90,80,71,90,80,70,98,98,98,29.64,29.47,8,2,0,0.21
2013-6-3,81,73,66,80,72,65,98,98,98,29.58,29.49,5,1,0,0.42
2013-6-4,78,66,56,69,61,55,98,86,56,29.81,29.58,6,2,0,0.00
2013-6-5,73,62,47,68,59,46,98,90,65,29.93,29.81,4,1,0,0.00
2013-6-6,70,62,55,70,62,54,98,98,98,29.85,29.70,7,1,0,0.26
2013-6-7,65,62,61,64,62,60,98,98,98,29.70,29.30,6,2,0,4.48
2013-6-8,78,68,58,78,67,57,98,98,98,29.74,29.27,6,1,0,0.04
2013-6-9,83,71,57,83,70,57,98,98,98,29.88,29.75,5,1,0,0.00
2013-6-10,71,67,65,70,66,64,98,98,98,29.85,29.51,5,1,0,1.66
2013-6-11,83,74,68,82,73,67,98,98,98,29.50,29.32,9,2,0,0.09
2013-6-12,80,71,60,80,70,60,98,98,98,29.55,29.41,6,2,0,0.00
2013-6-13,67,63,58,67,62,57,98,98,98,29.54,29.13,8,2,0,1.21
2013-6-14,75,61,54,74,61,54,98,98,98,29.59,29.22,6,2,0,0.40
2013-6-15,83,69,55,82,68,55,98,98,97,29.72,29.59,5,1,0,0.01
2013-6-16,84,70,56,83,70,55,98,98,98,29.70,29.48,7,1,0,0.00
2013-6-17,88,75,64,88,74,63,98,98,98,29.61,29.53,9,1,0,0.00
2013-6-18,84,71,63,83,70,62,98,98,98,29.60,29.51,3,0,0,0.27
2013-6-19,79,68,58,77,67,58,98,95,69,29.86,29.58,5,1,0,0.00
2013-6-20,78,62,52,78,61,52,98,98,98,29.97,29.87,3,0,0,0.00
2013-6-21,84,64,54,84,63,54,98,98,92,30.00,29.92,3,0,0,0.00
2013-6-22,86,72,55,86,72,54,98,98,98,29.96,29.81,4,1,0,0.00
2013-6-23,90,75,62,90,75,61,98,98,98,29.89,29.75,5,1,0,0.36
2013-6-24,95,80,71,94,80,71,98,98,98,29.78,29.66,5,1,0,0.01
2013-6-25,93,77,66,92,76,66,98,98,98,29.70,29.50,5,1,0,0.20
2013-6-26,88,79,71,87,78,71,98,98,98,29.55,29.45,4,1,0,0.00
2013-6-27,88,79,71,88,78,70,98,98,98,29.53,29.25,5,1,0,0.49
2013-6-28,89,78,72,88,78,71,98,98,98,29.26,29.15,5,1,0,0.00
2013-6-29,89,77,66,88,77,66,98,98,98,29.41,29.18,5,1,0,0.00
2013-6-30,87,77,70,86,76,69,98,98,98,29.61,29.41,5,0,0,0.08
2013-7-1,79,76,73,79,75,73,98,98,98,29.74,29.58,3,0,0,2.27
2013-7-2,87,78,74,86,78,73,98,98,98,29.89,29.73,4,1,0,0.09
2013-7-3,88,78,71,88,78,71,98,98,98,29.95,29.86,4,0,0,0.08
2013-7-4,91,82,74,91,81,74,98,98,98,29.95,29.84,5,1,0,0.01
2013-7-5,95,83,73,94,83,72,98,98,98,29.92,29.78,4,1,0,0.00
2013-7-6,96,83,74,95,83,73,98,98,98,29.84,29.72,5,1,0,0.00
2013-7-7,95,84,74,94,84,74,98,98,98,29.78,29.63,5,1,0,0.00
2013-7-8,91,80,70,91,79,70,98,98,98,29.76,29.66,6,1,0,0.00
2013-7-9,91,79,69,90,79,68,98,98,98,29.77,29.68,4,1,0,0.02
2013-7-10,89,80,72,88,80,72,98,98,98,29.72,29.50,5,1,0,0.01
2013-7-11,86,79,72,86,79,71,98,98,98,29.62,29.49,5,0,0,0.00
2013-7-12,79,73,69,78,72,68,98,98,98,29.78,29.61,8,2,0,0.38
2013-7-13,83,75,70,82,75,69,98,98,98,29.99,29.78,4,1,0,0.32
2013-7-14,93,82,75,92,82,74,98,98,98,30.04,29.92,4,1,0,0.02
2013-7-15,97,84,72,97,83,71,98,98,98,29.96,29.82,4,1,0,0.00
2013-7-16,95,84,73,94,83,73,98,98,98,29.91,29.82,7,1,0,0.00
2013-7-17,97,85,72,96,84,72,98,98,98,29.89,29.75,4,1,0,0.00
2013-7-18,99,87,75,98,86,74,98,98,98,29.78,29.63,5,1,0,0.00
2013-7-19,98,88,78,98,87,77,98,98,98,29.68,29.49,7,1,0,0.00
2013-7-20,93,83,75,93,82,75,98,98,98,29.54,29.42,5,1,0,0.13
2013-7-21,89,80,72,89,79,72,98,98,98,29.66,29.53,4,1,0,0.01
2013-7-22,88,78,71,88,77,71,98,98,98,29.65,29.49,5,1,0,0.23
2013-7-23,89,80,73,88,79,73,98,98,98,29.48,29.26,5,1,0,0.41
2013-7-24,83,75,68,82,75,67,98,98,98,29.62,29.31,7,1,0,0.00
2013-7-25,69,66,64,68,66,63,98,98,98,29.74,29.63,6,2,0,0.00
2013-7-26,85,73,65,84,72,64,98,98,98,29.74,29.67,5,1,0,0.00
2013-7-27,87,73,61,86,73,61,98,98,98,29.75,29.63,5,1,0,0.00
2013-7-28,84,73,66,83,72,65,98,98,98,29.68,29.59,6,1,0,0.95
2013-7-29,86,75,65,85,74,64,98,98,98,29.81,29.64,5,1,0,0.03
2013-7-30,84,70,57,83,70,57,98,98,98,29.87,29.77,5,1,0,0.00
2013-7-31,85,72,58,85,72,57,98,98,98,29.86,29.72,3,0,0,0.00
2013-8-1,74,70,67,73,69,66,98,98,98,29.74,29.52,2,0,0,1.07
2013-8-2,86,75,64,86,74,64,98,98,98,29.62,29.48,5,1,0,0.02
2013-8-3,80,70,64,79,70,64,98,98,98,29.62,29.52,5,1,0,0.04
2013-8-4,82,71,60,81,70,60,98,98,98,29.68,29.54,5,1,0,0.00
2013-8-5,80,68,56,79,67,55,98,98,98,29.77,29.67,5,1,0,0.00
2013-8-6,84,71,57,84,70,56,98,98,98,29.83,29.73,4,1,0,0.00
2013-8-7,82,73,65,82,72,64,98,98,98,29.83,29.76,5,1,0,0.02
2013-8-8,84,75,70,84,74,70,98,98,98,29.77,29.70,4,0,0,1.86
2013-8-9,86,78,73,86,78,72,98,98,98,29.72,29.50,5,1,0,0.17
2013-8-10,85,76,67,84,75,67,98,98,98,29.75,29.56,5,1,0,0.01
2013-8-11,84,72,60,83,71,59,98,98,98,29.82,29.71,5,1,0,0.00
2013-8-12,86,74,69,85,74,68,98,98,98,29.74,29.62,2,0,0,0.25
2013-8-13,81,72,68,80,72,68,98,98,98,29.62,29.37,4,0,0,1.15
2013-8-14,77,67,56,76,66,56,98,98,98,29.71,29.45,6,2,0,0.00
2013-8-15,79,70,58,79,70,58,98,98,98,29.84,29.74,5,1,0,0.00
2013-8-16,83,68,53,82,67,53,98,98,98,29.90,29.82,3,0,0,0.00
2013-8-17,83,69,56,83,68,55,98,98,98,29.98,29.90,4,0,0,0.00
2013-8-18,77,69,61,77,68,61,98,98,98,29.95,29.81,3,0,0,0.00
2013-8-19,78,69,61,77,69,61,98,98,98,29.83,29.73,3,0,0,0.00
2013-8-20,88,74,62,87,74,62,98,98,98,29.83,29.74,4,0,0,0.00
2013-8-21,89,76,64,89,75,63,98,98,98,29.87,29.76,4,0,0,0.00
2013-8-22,79,73,69,79,72,68,98,98,98,29.77,29.57,2,0,0,0.52
2013-8-23,82,73,64,82,73,64,98,98,98,29.80,29.57,7,1,0,0.00
2013-8-24,81,69,58,81,69,58,98,98,98,30.05,29.80,6,1,0,0.00
2013-8-25,84,68,54,83,68,54,98,98,98,30.10,29.92,5,1,0,0.01
2013-8-26,83,73,63,82,72,62,98,98,98,29.94,29.61,4,1,0,0.02
2013-8-27,88,77,71,87,77,70,98,98,98,29.62,29.52,5,1,0,0.06
2013-8-28,86,75,68,86,74,68,98,98,98,29.59,29.53,3,0,0,0.08
2013-8-29,80,74,70,80,73,70,98,98,98,29.75,29.57,4,1,0,0.01
2013-8-30,86,76,69,85,76,68,98,98,98,29.73,29.56,7,1,0,0.00
2013-8-31,88,80,71,87,80,70,98,98,98,29.57,29.48,4,1,0,0.00
2013-9-1,86,78,73,86,77,72,98,98,98,29.57,29.48,2,0,0,0.00
2013-9-2,81,76,73,81,76,72,98,98,98,29.50,29.41,2,0,0,0.18
2013-9-3,83,79,74,82,78,74,98,98,98,29.50,29.45,5,1,0,0.00
2013-9-6,74,61,51,73,60,51,98,98,97,29.88,29.84,3,0,0,0.00
2013-9-7,80,64,47,80,63,47,98,98,98,29.85,29.60,4,1,0,0.01
2013-9-8,82,70,60,82,70,60,98,98,98,29.80,29.51,6,1,0,0.00
2013-9-9,73,63,49,72,62,48,98,98,98,29.96,29.81,6,1,0,0.00
2013-9-10,88,76,67,87,76,66,98,98,98,29.87,29.75,7,1,0,0.00
2013-9-11,95,83,73,94,82,73,98,98,98,29.82,29.67,5,1,0,0.00
2013-9-12,87,78,70,86,78,70,98,98,98,29.63,29.38,4,1,0,0.35
2013-9-13,79,69,58,78,68,58,98,98,98,29.57,29.34,6,1,0,0.14
2013-9-14,67,57,48,66,57,47,98,98,98,29.83,29.57,5,1,0,0.00
2013-9-15,74,58,44,74,57,44,98,98,98,29.93,29.78,4,0,0,0.00
2013-9-16,74,62,53,73,61,53,98,98,98,29.94,29.74,7,1,0,0.04
2013-9-17,66,55,44,66,54,43,98,98,98,30.15,29.95,7,1,0,0.00
2013-9-18,72,55,40,72,54,40,98,98,98,30.06,29.89,4,0,0,0.00
2013-9-19,78,60,45,77,59,45,98,98,98,29.91,29.76,4,0,0,0.00
2013-9-20,81,64,49,80,63,49,98,98,98,29.80,29.68,4,1,0,0.00
2013-9-21,81,66,50,80,65,50,98,98,98,29.72,29.34,6,1,0,0.19
2013-9-22,71,63,54,71,63,53,98,98,98,29.62,29.35,7,2,0,0.51
2013-9-23,67,55,44,66,55,43,98,98,98,29.76,29.62,8,1,0,0.00
2013-9-24,73,56,40,73,55,40,98,98,98,29.77,29.58,6,1,0,0.00
2013-9-25,73,57,44,73,56,43,98,98,98,29.67,29.57,4,0,0,0.00
2013-9-26,70,59,49,70,58,49,98,98,98,29.81,29.64,5,1,0,0.00
2013-9-27,69,61,50,69,60,49,98,98,98,29.97,29.80,3,1,0,0.00
2013-9-28,76,61,52,75,60,52,98,98,98,30.03,29.94,6,1,0,0.00
2013-9-29,72,58,49,71,58,48,98,98,98,29.93,29.78,4,1,0,0.00
2013-9-30,74,60,47,74,59,46,98,98,98,29.79,29.66,4,0,0,0.00
2013-10-1,82,64,50,81,64,50,98,98,98,29.72,29.59,5,0,0,0.00
2013-10-2,84,68,54,83,67,53,98,98,98,29.71,29.59,4,1,0,0.00
2013-10-3,81,67,54,80,66,54,98,98,98,29.82,29.71,3,0,0,0.00
2013-10-4,86,71,58,86,71,58,98,98,98,29.76,29.64,4,0,0,0.00
2013-10-5,77,70,64,76,69,64,98,98,98,29.80,29.70,4,1,0,0.03
2013-10-6,70,68,67,70,68,66,98,98,98,29.79,29.71,5,1,0,0.00
2013-10-7,80,67,55,79,67,55,98,98,98,29.70,29.44,7,1,0,0.49
2013-10-8,68,55,48,67,54,47,98,98,98,30.03,29.70,4,0,0,0.01
2013-10-9,63,56,48,62,55,48,98,98,98,30.09,29.99,8,2,0,0.00
2013-10-10,62,58,52,62,57,52,98,98,98,29.98,29.77,7,2,0,0.04
2013-10-11,68,63,58,68,63,57,98,98,98,29.77,29.70,8,2,0,0.02
2013-10-12,71,65,58,70,64,58,98,97,66,29.97,29.75,10,3,0,0.00
2013-10-13,66,59,53,65,59,53,98,98,98,30.10,29.96,7,2,0,0.00
2013-10-14,68,55,45,67,55,44,98,98,98,30.07,29.94,5,1,0,0.00
2013-10-15,72,56,46,72,55,46,98,98,98,29.97,29.82,4,0,0,0.00
2013-10-16,70,54,49,69,54,48,98,98,98,29.82,29.64,2,0,0,0.00
2013-10-17,74,68,65,73,68,65,98,98,98,29.59,29.37,3,1,0,0.01
2013-10-18,68,59,45,68,59,44,98,98,98,29.69,29.37,8,2,0,0.00
2013-10-19,65,53,41,65,52,40,98,98,98,29.70,29.44,4,0,0,0.03
2013-10-20,63,52,40,63,52,40,98,98,98,29.78,29.46,5,1,0,0.01
2013-10-21,68,51,36,68,50,36,98,98,97,29.85,29.69,4,1,0,0.00
2013-10-22,67,50,40,66,50,39,98,98,98,29.68,29.45,6,1,0,0.00
2013-10-23,56,46,36,56,45,35,98,98,98,29.52,29.30,7,1,0,0.00
2013-10-24,54,43,33,53,42,33,98,98,98,29.73,29.46,6,1,0,0.00
2013-10-25,54,41,30,54,41,30,98,98,98,29.94,29.72,8,1,0,0.00
2013-10-26,55,42,29,55,42,28,98,98,98,29.93,29.61,7,1,0,0.01
2013-10-27,59,47,34,59,47,34,98,98,98,29.84,29.55,5,1,0,0.00
2013-10-28,62,44,30,61,44,30,98,98,98,30.01,29.83,6,1,0,0.00
2013-10-29,57,45,37,56,45,36,98,98,98,30.13,30.01,4,0,0,0.00
2013-10-30,62,49,36,61,48,36,98,98,98,30.06,29.88,3,0,0,0.00
2013-10-31,66,59,46,65,58,46,98,98,98,29.92,29.50,3,0,0,0.09
2013-11-1,69,64,53,68,63,53,98,98,98,29.49,29.24,10,2,0,0.24
2013-11-2,68,56,46,67,55,46,98,98,98,29.49,29.31,6,0,0,0.00
2013-11-3,51,44,32,51,44,31,98,98,98,30.16,29.48,6,2,0,0.00
2013-11-4,46,35,26,42,33,25,98,91,60,30.38,30.16,7,1,0,0.00
2013-11-5,56,44,31,55,43,30,98,98,98,30.36,30.18,4,0,0,0.00
2013-11-6,63,51,38,62,50,37,98,98,98,30.20,29.77,4,0,0,0.00
2013-11-7,63,52,34,62,52,33,98,98,98,29.77,29.44,6,1,0,0.12
2013-11-8,50,41,31,50,41,30,98,98,98,29.94,29.64,7,1,0,0.00
2013-11-9,51,40,27,51,39,26,98,98,98,30.00,29.70,5,1,0,0.00
2013-11-10,61,46,35,60,46,34,98,98,98,29.75,29.52,9,2,0,0.00
2013-11-11,54,46,31,53,46,30,98,98,98,29.93,29.66,5,2,0,0.00
2013-11-12,50,37,26,49,37,26,98,98,98,30.01,29.62,9,2,0,0.01
2013-11-13,39,30,24,36,28,23,98,92,60,30.09,29.98,7,1,0,0.00
2013-11-14,54,38,27,45,30,22,98,80,29,29.98,29.86,6,2,0,0.00
2013-11-15,57,39,26,55,37,26,98,95,67,29.96,29.86,3,0,0,0.00
2013-11-16,60,48,34,60,47,34,98,98,98,30.04,29.93,3,0,0,0.05
2013-11-17,62,56,47,61,55,46,98,98,98,29.97,29.49,3,0,0,0.00
2013-11-18,65,59,49,64,55,40,98,89,59,29.49,29.29,10,2,0,0.18
2013-11-19,49,43,32,48,42,31,98,98,95,30.05,29.49,7,3,0,0.00
2013-11-20,45,33,25,39,20,-51,98,78,1,30.32,30.04,7,1,0,0.00
2013-11-21,52,40,24,51,39,23,98,98,98,30.32,30.09,7,1,0,0.00
2013-11-22,58,51,47,57,51,46,98,98,98,30.08,29.60,5,1,0,0.09
2013-11-23,53,42,29,53,39,26,98,92,54,29.75,29.60,10,3,0,0.00
2013-11-24,29,25,21,28,11,1,98,56,31,30.10,29.73,9,4,0,0.00
2013-11-25,35,27,16,35,26,16,98,98,97,30.20,30.03,6,1,0,0.00
2013-11-26,51,37,31,51,36,31,98,98,98,30.04,29.44,4,1,0,0.79
2013-11-27,64,48,33,64,47,32,98,98,74,29.45,29.05,10,3,0,2.61
2013-11-28,36,30,24,33,27,17,98,90,48,30.17,29.47,9,2,0,0.00
2013-11-29,40,30,24,40,30,23,98,98,98,30.45,30.16,4,0,0,0.00
2013-11-30,37,30,20,36,30,20,98,98,98,30.46,30.07,5,1,0,0.00
2013-12-1,50,40,28,49,40,27,98,98,98,30.07,29.71,3,0,0,0.00
2013-12-2,50,40,32,50,40,31,98,98,98,29.71,29.58,2,0,0,0.00
2013-12-3,54,40,32,54,40,31,98,98,98,29.70,29.57,4,0,0,0.00
2013-12-4,51,43,32,51,42,32,98,98,98,29.85,29.70,3,0,0,0.00
2013-12-5,58,54,48,58,53,48,98,98,98,29.81,29.63,2,0,0,0.01
2013-12-6,64,49,39,63,49,39,98,98,98,29.87,29.55,5,1,0,1.07
2013-12-7,41,36,27,40,35,26,98,98,98,30.22,29.79,8,1,0,0.22
2013-12-8,34,29,24,33,29,24,98,98,98,30.30,30.06,6,1,0,0.00
2013-12-9,39,36,32,38,35,31,98,98,98,30.05,29.67,5,1,0,0.32
2013-12-10,38,32,22,37,32,22,98,98,98,29.84,29.58,3,0,0,0.01
2013-12-11,34,26,19,34,25,18,98,98,98,30.05,29.84,7,1,0,0.01
2013-12-12,28,23,16,25,21,16,98,94,69,30.07,29.88,5,2,0,0.01
2013-12-13,35,24,11,34,23,10,98,98,98,30.03,29.83,5,1,0,0.00
2013-12-14,31,25,20,31,24,20,98,98,98,30.19,29.47,9,2,0,0.00
2013-12-15,39,35,29,39,34,29,98,98,98,29.55,29.20,6,2,0,0.67
2013-12-16,30,24,13,30,24,13,98,98,96,29.93,29.53,6,2,0,0.01
2013-12-17,32,25,18,31,24,17,98,98,98,29.92,29.63,5,1,0,0.00
2013-12-18,37,26,16,37,25,15,98,98,98,29.88,29.62,8,1,0,0.15
2013-12-19,44,30,16,44,29,16,98,98,98,29.89,29.73,4,0,0,0.26
2013-12-20,50,38,29,50,38,28,98,98,98,29.81,29.68,3,0,0,0.08
2013-12-21,61,47,37,60,47,36,98,98,98,29.70,29.60,3,0,0,0.00
2013-12-22,70,64,52,70,63,51,98,98,98,29.66,29.50,7,2,0,0.01
2013-12-23,64,56,40,63,55,40,98,98,98,29.87,29.59,6,1,0,0.76
2013-12-24,41,34,25,40,34,25,98,98,98,30.05,29.80,7,2,0,0.00
2013-12-25,29,24,17,27,23,17,98,95,71,30.25,30.06,6,1,0,0.00
2013-12-26,35,29,24,34,29,23,98,98,98,30.14,29.88,6,1,0,0.00
2013-12-27,41,29,20,41,28,20,98,98,98,30.08,29.97,5,1,0,0.00
2013-12-28,55,36,20,52,34,20,98,94,66,29.99,29.77,9,1,0,0.00
2013-12-29,45,40,32,45,39,32,98,98,98,29.77,29.13,5,1,0,1.60
2013-12-30,45,34,21,44,34,20,98,98,98,29.91,29.40,7,2,0,0.01
2013-12-31,31,24,16,31,23,15,98,98,98,30.00,29.77,9,1,0,0.00
2014-1-1,34,25,16,34,24,16,98,98,98,30.13,29.94,4,0,0,0.00
2014-1-2,32,27,18,31,27,18,98,98,98,29.92,29.36,9,4,0,0.00